createdAt,value
2018-11-12T00:01:55.718Z,2.80
2018-11-12T00:04:22.193Z,2.43
2018-11-12T00:06:48.629Z,2.27
2018-11-12T00:09:15.081Z,2.50
2018-11-12T00:11:41.811Z,2.13
2018-11-12T00:14:08.957Z,2.20
2018-11-12T00:16:35.385Z,2.50
2018-11-12T00:19:01.857Z,2.50
2018-11-12T00:21:28.341Z,2.37
2018-11-12T00:23:54.811Z,1.83
2018-11-12T00:26:21.265Z,2.20
2018-11-12T00:28:47.709Z,2.13
2018-11-12T00:31:14.169Z,2.67
2018-11-12T00:33:41.643Z,2.47
2018-11-12T00:36:08.121Z,2.13
2018-11-12T00:38:34.556Z,2.40
2018-11-12T00:41:00.999Z,2.17
2018-11-12T00:43:27.439Z,2.33
2018-11-12T00:45:53.879Z,2.13
2018-11-12T00:48:20.349Z,2.07
2018-11-12T00:50:46.770Z,1.93
2018-11-12T00:53:13.165Z,2.50
2018-11-12T00:55:39.658Z,2.63
2018-11-12T00:58:06.071Z,2.43
2018-11-12T01:00:32.498Z,3.03
2018-11-12T01:02:58.935Z,2.70
2018-11-12T01:05:25.356Z,2.50
2018-11-12T01:07:51.816Z,2.07
2018-11-12T01:10:18.877Z,2.20
2018-11-12T01:12:45.604Z,2.10
2018-11-12T01:15:14.422Z,1.83
2018-11-12T01:17:41.245Z,2.73
2018-11-12T01:20:08.187Z,2.37
2018-11-12T01:22:34.603Z,2.20
2018-11-12T01:25:01.024Z,2.37
2018-11-12T01:27:27.452Z,1.90
2018-11-12T01:29:53.887Z,3.03
2018-11-12T01:32:20.353Z,2.07
2018-11-12T01:34:46.795Z,2.57
2018-11-12T01:37:13.217Z,2.70
2018-11-12T01:39:39.627Z,2.40
2018-11-12T01:42:06.139Z,2.40
2018-11-12T01:44:32.480Z,2.10
2018-11-12T01:46:58.889Z,2.40
2018-11-12T01:49:25.297Z,2.30
2018-11-12T01:51:51.741Z,3.03
2018-11-12T01:54:18.257Z,2.23
2018-11-12T01:56:44.703Z,2.27
2018-11-12T01:59:11.118Z,2.57
2018-11-12T02:01:37.600Z,2.30
2018-11-12T02:04:04.008Z,1.90
2018-11-12T02:06:30.415Z,2.10
2018-11-12T02:08:57.051Z,2.17
2018-11-12T02:11:23.390Z,2.40
2018-11-12T02:13:49.856Z,2.20
2018-11-12T02:16:16.311Z,2.67
2018-11-12T02:18:42.755Z,2.60
2018-11-12T02:21:09.240Z,3.37
2018-11-12T02:23:35.932Z,2.27
2018-11-12T02:26:02.374Z,2.00
2018-11-12T02:28:28.848Z,2.23
2018-11-12T02:30:55.319Z,2.73
2018-11-12T02:33:21.831Z,2.00
2018-11-12T02:35:48.219Z,1.90
2018-11-12T02:38:14.673Z,2.63
2018-11-12T02:40:41.098Z,2.20
2018-11-12T02:43:07.885Z,2.47
2018-11-12T02:45:34.322Z,2.90
2018-11-12T02:48:00.716Z,2.63
2018-11-12T02:50:27.252Z,2.20
2018-11-12T02:52:53.693Z,2.20
2018-11-12T02:55:20.148Z,2.97
2018-11-12T02:57:47.068Z,2.70
2018-11-12T03:00:14.228Z,2.07
2018-11-12T03:02:40.800Z,1.93
2018-11-12T03:05:07.737Z,2.30
2018-11-12T03:07:34.263Z,2.17
2018-11-12T03:10:00.584Z,1.97
2018-11-12T03:12:27.036Z,2.67
2018-11-12T03:14:53.498Z,2.30
2018-11-12T03:17:19.910Z,2.47
2018-11-12T03:19:46.350Z,2.17
2018-11-12T03:22:12.755Z,2.23
2018-11-12T03:24:39.146Z,2.23
2018-11-12T03:27:05.610Z,2.00
2018-11-12T03:29:32.036Z,2.03
2018-11-12T03:31:58.474Z,2.43
2018-11-12T03:34:24.907Z,2.20
2018-11-12T03:36:51.338Z,2.53
2018-11-12T03:39:17.775Z,2.30
2018-11-12T03:41:44.216Z,2.07
2018-11-12T03:44:10.657Z,2.17
2018-11-12T03:46:37.092Z,2.07
2018-11-12T03:49:03.524Z,2.60
2018-11-12T03:51:29.954Z,2.97
2018-11-12T03:53:56.393Z,2.47
2018-11-12T03:56:22.821Z,2.30
2018-11-12T03:58:49.269Z,1.90
2018-11-12T04:01:15.716Z,1.93
2018-11-12T04:03:42.170Z,2.07
2018-11-12T04:06:08.600Z,2.97
2018-11-12T04:08:35.026Z,2.20
2018-11-12T04:11:01.465Z,1.70
2018-11-12T04:13:27.923Z,2.53
2018-11-12T04:15:54.354Z,2.43
2018-11-12T04:18:20.807Z,2.10
2018-11-12T04:20:47.212Z,2.30
2018-11-12T04:23:13.677Z,2.43
2018-11-12T04:25:40.830Z,2.80
2018-11-12T04:28:07.260Z,1.70
2018-11-12T04:30:33.846Z,2.13
2018-11-12T04:33:00.281Z,2.60
2018-11-12T04:35:26.690Z,2.30
2018-11-12T04:37:53.085Z,2.67
2018-11-12T04:40:19.694Z,2.13
2018-11-12T04:42:46.669Z,2.00
2018-11-12T04:45:18.437Z,1.80
2018-11-12T04:47:45.587Z,2.37
2018-11-12T04:50:13.109Z,1.90
2018-11-12T04:52:39.975Z,1.67
2018-11-12T04:55:06.490Z,2.47
2018-11-12T04:57:32.874Z,2.70
2018-11-12T04:59:59.305Z,2.10
2018-11-12T05:02:28.028Z,2.10
2018-11-12T05:04:54.461Z,2.30
2018-11-12T05:07:20.945Z,2.40
2018-11-12T05:09:47.337Z,2.43
2018-11-12T05:12:13.741Z,3.10
2018-11-12T05:14:40.239Z,2.63
2018-11-12T05:17:06.921Z,1.90
2018-11-12T05:19:33.377Z,2.10
2018-11-12T05:21:59.935Z,2.60
2018-11-12T05:24:26.375Z,2.10
2018-11-12T05:26:52.804Z,1.73
2018-11-12T05:29:19.269Z,2.20
2018-11-12T05:31:45.739Z,2.17
2018-11-12T05:34:12.156Z,2.20
2018-11-12T05:36:38.580Z,1.97
2018-11-12T05:39:05.015Z,1.63
2018-11-12T05:41:31.474Z,1.83
2018-11-12T05:43:57.908Z,2.40
2018-11-12T05:46:24.361Z,2.10
2018-11-12T05:48:50.784Z,1.70
2018-11-12T05:51:17.335Z,2.40
2018-11-12T05:53:44.308Z,2.30
2018-11-12T05:56:10.803Z,2.10
2018-11-12T05:58:37.233Z,2.27
2018-11-12T06:01:03.669Z,1.87
2018-11-12T06:03:30.103Z,2.37
2018-11-12T06:05:56.545Z,2.30
2018-11-12T06:08:22.997Z,1.97
2018-11-12T06:10:49.432Z,2.30
2018-11-12T06:13:15.906Z,2.77
2018-11-12T06:15:42.334Z,2.30
2018-11-12T06:18:08.745Z,2.53
2018-11-12T06:20:35.198Z,2.30
2018-11-12T06:23:01.679Z,2.30
2018-11-12T06:25:30.553Z,2.17
2018-11-12T06:27:57.175Z,2.20
2018-11-12T06:30:25.257Z,2.33
2018-11-12T06:32:51.671Z,2.80
2018-11-12T06:35:18.637Z,2.77
2018-11-12T06:37:45.993Z,2.17
2018-11-12T06:40:20.541Z,2.00
2018-11-12T06:42:47.159Z,2.83
2018-11-12T06:45:14.967Z,2.03
2018-11-12T06:47:42.307Z,2.10
2018-11-12T06:50:10.369Z,1.93
2018-11-12T06:52:37.218Z,3.20
2018-11-12T06:55:03.697Z,2.13
2018-11-12T06:57:30.294Z,2.70
2018-11-12T06:59:56.731Z,2.70
2018-11-12T07:02:23.134Z,3.00
2018-11-12T07:04:49.570Z,2.73
2018-11-12T07:07:16.011Z,2.53
2018-11-12T07:09:42.473Z,2.57
2018-11-12T07:12:09.561Z,3.17
2018-11-12T07:14:35.999Z,2.13
2018-11-12T07:17:02.441Z,1.87
2018-11-12T07:19:28.847Z,2.20
2018-11-12T07:21:55.404Z,2.03
2018-11-12T07:24:21.856Z,2.77
2018-11-12T07:26:48.303Z,2.27
2018-11-12T07:29:14.870Z,2.20
2018-11-12T07:31:41.314Z,2.17
2018-11-12T07:34:09.320Z,2.40
2018-11-12T07:36:35.764Z,2.37
2018-11-12T07:39:02.234Z,2.83
2018-11-12T07:41:28.716Z,2.40
2018-11-12T07:43:55.165Z,2.00
2018-11-12T07:46:21.679Z,2.23
2018-11-12T07:48:48.234Z,2.27
2018-11-12T07:51:15.605Z,2.27
2018-11-12T07:53:42.009Z,2.90
2018-11-12T07:56:08.485Z,2.53
2018-11-12T07:58:34.906Z,2.43
2018-11-12T08:01:01.341Z,2.37
2018-11-12T08:03:27.831Z,2.33
2018-11-12T08:05:54.394Z,2.37
2018-11-12T08:08:20.839Z,2.33
2018-11-12T08:10:47.288Z,2.07
2018-11-12T08:13:13.714Z,2.23
2018-11-12T08:15:40.155Z,2.17
2018-11-12T08:18:06.637Z,2.10
2018-11-12T08:20:33.081Z,2.30
2018-11-12T08:22:59.563Z,2.40
2018-11-12T08:25:26.674Z,2.73
2018-11-12T08:27:53.112Z,3.07
2018-11-12T08:30:22.695Z,2.23
2018-11-12T08:32:50.586Z,2.20
2018-11-12T08:35:17.253Z,2.50
2018-11-12T08:37:44.226Z,2.23
2018-11-12T08:40:10.678Z,2.43
2018-11-12T08:42:37.090Z,2.87
2018-11-12T08:45:04.370Z,2.37
2018-11-12T08:47:30.832Z,2.03
2018-11-12T08:49:57.649Z,2.30
2018-11-12T08:52:24.082Z,2.33
2018-11-12T08:54:50.596Z,2.33
2018-11-12T08:57:16.977Z,2.47
2018-11-12T08:59:43.491Z,2.33
2018-11-12T09:02:10.085Z,2.40
2018-11-12T09:04:36.670Z,2.10
2018-11-12T09:07:03.054Z,2.30
2018-11-12T09:09:29.428Z,2.60
2018-11-12T09:11:56.011Z,2.00
2018-11-12T09:14:22.461Z,2.13
2018-11-12T09:16:49.007Z,2.60
2018-11-12T09:19:16.113Z,2.40
2018-11-12T09:21:42.554Z,2.20
2018-11-12T09:24:09.047Z,2.43
2018-11-12T09:26:35.528Z,2.50
2018-11-12T09:29:01.973Z,2.27
2018-11-12T09:31:28.625Z,2.33
2018-11-12T09:38:47.889Z,1.93
2018-11-12T09:41:14.344Z,2.20
2018-11-12T09:43:40.773Z,2.00
2018-11-12T09:46:07.312Z,2.37
2018-11-12T09:48:33.693Z,2.50
2018-11-12T09:51:00.161Z,2.30
2018-11-12T09:53:26.591Z,2.73
2018-11-12T09:55:53.043Z,1.87
2018-11-12T09:58:19.517Z,2.00
2018-11-12T10:00:46.108Z,2.10
2018-11-12T10:03:13.991Z,2.20
2018-11-12T10:05:40.530Z,2.10
2018-11-12T10:08:07.698Z,2.30
2018-11-12T10:10:34.368Z,1.97
2018-11-12T10:13:00.757Z,1.80
2018-11-12T10:15:27.881Z,2.53
2018-11-12T10:17:53.858Z,2.23
2018-11-12T10:20:18.235Z,2.20
2018-11-12T10:22:45.141Z,2.03
2018-11-12T10:25:11.689Z,2.80
2018-11-12T10:27:38.610Z,2.67
2018-11-12T10:30:05.080Z,2.27
2018-11-12T10:32:31.563Z,2.10
2018-11-12T10:34:58.063Z,2.03
2018-11-12T10:37:24.495Z,2.30
2018-11-12T10:39:51.035Z,2.30
2018-11-12T10:42:17.472Z,1.93
2018-11-12T10:44:43.917Z,1.90
2018-11-12T10:47:10.385Z,2.30
2018-11-12T10:49:36.855Z,1.77
2018-11-12T10:52:03.276Z,1.90
2018-11-12T10:54:29.794Z,1.97
2018-11-12T10:56:56.227Z,2.50
2018-11-12T10:59:22.656Z,1.97
2018-11-12T11:01:57.654Z,2.23
2018-11-12T11:06:58.406Z,2.43
2018-11-12T11:09:24.903Z,2.50
2018-11-12T11:11:51.391Z,1.97
2018-11-12T11:14:17.876Z,2.10
2018-11-12T11:16:44.314Z,2.17
2018-11-12T11:19:10.725Z,1.80
2018-11-12T11:21:37.569Z,1.80
2018-11-12T11:24:04.022Z,2.00
2018-11-12T11:26:30.479Z,1.90
2018-11-12T11:28:56.910Z,2.60
2018-11-12T11:31:23.346Z,2.20
2018-11-12T11:33:49.772Z,2.13
2018-11-12T11:36:16.202Z,1.70
2018-11-12T11:38:42.986Z,2.53
2018-11-12T11:41:09.410Z,2.23
2018-11-12T11:43:35.842Z,2.13
2018-11-12T11:46:02.304Z,1.70
2018-11-12T11:48:28.734Z,2.13
2018-11-12T11:50:55.197Z,2.20
2018-11-12T11:53:21.671Z,2.00
2018-11-12T11:55:48.082Z,2.13
2018-11-12T11:58:14.526Z,1.53
2018-11-12T12:00:40.954Z,2.23
2018-11-12T12:03:07.501Z,2.00
2018-11-12T12:05:33.856Z,1.83
2018-11-12T12:08:00.278Z,1.60
2018-11-12T12:10:26.744Z,1.67
2018-11-12T12:12:53.474Z,1.90
2018-11-12T12:15:20.951Z,2.00
2018-11-12T12:17:47.356Z,1.63
2018-11-12T12:20:19.106Z,1.80
2018-11-12T12:22:45.504Z,1.80
2018-11-12T12:25:13.339Z,1.90
2018-11-12T12:27:39.990Z,1.53
2018-11-12T12:30:06.466Z,2.23
2018-11-12T12:32:32.936Z,1.77
2018-11-12T12:34:59.365Z,2.00
2018-11-12T12:37:25.804Z,1.70
2018-11-12T12:39:52.266Z,1.83
2018-11-12T12:42:18.708Z,2.10
2018-11-12T12:44:45.211Z,2.10
2018-11-12T12:47:11.570Z,2.10
2018-11-12T12:49:38.133Z,1.30
2018-11-12T12:52:05.772Z,1.87
2018-11-12T12:54:32.218Z,1.50
2018-11-12T12:56:58.645Z,1.80
2018-11-12T12:59:25.236Z,1.67
2018-11-12T13:01:52.067Z,1.80
2018-11-12T13:04:18.384Z,1.80
2018-11-12T13:06:44.982Z,1.87
2018-11-12T13:09:11.378Z,1.80
2018-11-12T13:11:38.055Z,1.90
2018-11-12T13:14:04.551Z,1.70
2018-11-12T13:16:31.018Z,1.63
2018-11-12T13:18:57.472Z,1.60
2018-11-12T13:21:24.064Z,1.70
2018-11-12T13:23:50.378Z,1.43
2018-11-12T13:26:16.916Z,1.50
2018-11-12T13:28:43.343Z,1.60
2018-11-12T13:31:09.843Z,1.60
2018-11-12T13:33:36.233Z,1.57
2018-11-12T13:36:02.815Z,1.90
2018-11-12T13:38:29.266Z,1.77
2018-11-12T13:40:55.784Z,1.43
2018-11-12T13:43:22.243Z,1.47
2018-11-12T13:45:48.758Z,1.70
2018-11-12T13:48:15.224Z,2.10
2018-11-12T13:50:41.662Z,1.63
2018-11-12T13:53:08.144Z,1.70
2018-11-12T13:55:34.514Z,1.60
2018-11-12T13:58:00.947Z,1.77
2018-11-12T14:00:28.703Z,2.10
2018-11-12T14:02:55.896Z,1.70
2018-11-12T14:05:22.914Z,2.10
2018-11-12T14:07:49.377Z,1.83
2018-11-12T14:10:17.201Z,1.40
2018-11-12T14:12:43.894Z,1.43
2018-11-12T14:15:11.186Z,1.67
2018-11-12T14:17:37.966Z,1.70
2018-11-12T14:20:04.509Z,1.60
2018-11-12T14:22:30.906Z,1.40
2018-11-12T14:24:57.357Z,1.70
2018-11-12T14:27:23.805Z,1.57
2018-11-12T14:29:50.562Z,1.63
2018-11-12T14:32:17.006Z,1.80
2018-11-12T14:34:43.434Z,1.40
2018-11-12T14:37:09.913Z,1.60
2018-11-12T14:39:36.355Z,1.80
2018-11-12T14:42:02.827Z,1.70
2018-11-12T14:44:29.581Z,1.83
2018-11-12T14:46:56.031Z,1.60
2018-11-12T14:49:22.451Z,1.57
2018-11-12T14:51:48.890Z,1.40
2018-11-12T14:54:15.331Z,1.47
2018-11-12T14:56:41.759Z,1.90
2018-11-12T14:59:08.303Z,1.77
2018-11-12T15:01:34.725Z,1.67
2018-11-12T15:04:01.200Z,1.70
2018-11-12T15:06:27.680Z,1.57
2018-11-12T15:08:54.311Z,1.63
2018-11-12T15:11:20.825Z,1.93
2018-11-12T15:13:47.281Z,1.97
2018-11-12T15:16:13.719Z,1.63
2018-11-12T15:18:40.138Z,1.60
2018-11-12T15:21:06.574Z,1.47
2018-11-12T15:23:33.137Z,1.60
2018-11-12T15:25:59.559Z,1.60
2018-11-12T15:28:26.123Z,1.87
2018-11-12T15:30:52.573Z,1.93
2018-11-12T15:33:18.975Z,1.30
2018-11-12T15:35:45.435Z,1.90
2018-11-12T15:38:11.877Z,1.37
2018-11-12T15:40:38.323Z,1.77
2018-11-12T15:43:04.814Z,1.87
2018-11-12T15:45:31.242Z,1.37
2018-11-12T15:47:57.660Z,1.77
2018-11-12T15:50:24.164Z,1.53
2018-11-12T15:52:50.584Z,1.17
2018-11-12T15:55:17.012Z,1.60
2018-11-12T15:57:43.485Z,1.67
2018-11-12T16:00:11.173Z,1.90
2018-11-12T16:02:37.607Z,1.50
2018-11-12T16:05:04.047Z,1.30
2018-11-12T16:07:30.636Z,1.87
2018-11-12T16:09:57.085Z,1.50
2018-11-12T16:12:23.663Z,1.50
2018-11-12T16:14:50.066Z,1.80
2018-11-12T16:17:16.458Z,1.37
2018-11-12T16:19:42.917Z,1.57
2018-11-12T16:22:09.349Z,1.27
2018-11-12T16:24:35.819Z,1.70
2018-11-12T16:27:02.377Z,1.70
2018-11-12T16:29:28.832Z,1.63
2018-11-12T16:31:55.258Z,1.53
2018-11-12T16:34:21.695Z,1.43
2018-11-12T16:36:48.126Z,1.60
2018-11-12T16:39:14.572Z,1.40
2018-11-12T16:41:41.004Z,1.53
2018-11-12T16:44:07.773Z,1.60
2018-11-12T16:46:34.315Z,1.67
2018-11-12T16:49:00.814Z,1.80
2018-11-12T16:51:27.266Z,1.63
2018-11-12T16:53:53.691Z,1.80
2018-11-12T16:56:20.134Z,1.40
2018-11-12T16:58:46.548Z,1.60
2018-11-12T17:01:12.986Z,1.60
2018-11-12T17:03:39.757Z,1.37
2018-11-12T17:06:06.221Z,1.37
2018-11-12T17:08:32.648Z,1.43
2018-11-12T17:10:59.069Z,1.90
2018-11-12T17:13:25.490Z,1.50
2018-11-12T17:15:51.940Z,1.50
2018-11-12T17:18:18.366Z,1.40
2018-11-12T17:20:44.786Z,1.40
2018-11-12T17:23:11.274Z,1.60
2018-11-12T17:25:37.736Z,1.47
2018-11-12T17:28:04.168Z,1.53
2018-11-12T17:30:30.610Z,1.20
2018-11-12T17:32:57.051Z,1.33
2018-11-12T17:35:23.508Z,1.27
2018-11-12T17:37:49.940Z,1.50
2018-11-12T17:40:16.603Z,1.53
2018-11-12T17:42:43.881Z,1.13
2018-11-12T17:45:11.512Z,1.50
2018-11-12T17:47:37.960Z,1.60
2018-11-12T17:50:04.550Z,1.50
2018-11-12T17:52:30.999Z,1.40
2018-11-12T17:54:57.540Z,1.47
2018-11-12T17:57:24.059Z,1.90
2018-11-12T17:59:50.544Z,2.53
2018-11-12T18:02:17.014Z,1.47
2018-11-12T18:04:43.486Z,1.60
2018-11-12T18:07:10.032Z,1.80
2018-11-12T18:09:36.423Z,1.77
2018-11-12T18:12:02.871Z,1.30
2018-11-12T18:14:29.296Z,1.57
2018-11-12T18:16:55.745Z,2.10
2018-11-12T18:19:22.178Z,1.57
2018-11-12T18:21:48.627Z,1.50
2018-11-12T18:24:15.061Z,1.63
2018-11-12T18:26:41.509Z,2.13
2018-11-12T18:29:07.953Z,1.77
2018-11-12T18:31:34.476Z,1.57
2018-11-12T18:34:00.845Z,1.27
2018-11-12T18:36:27.318Z,1.40
2018-11-12T18:38:54.071Z,1.60
2018-11-12T18:41:20.512Z,1.70
2018-11-12T18:43:46.948Z,1.67
2018-11-12T18:46:13.428Z,1.77
2018-11-12T18:48:39.911Z,1.73
2018-11-12T18:51:06.347Z,1.60
2018-11-12T18:53:32.900Z,1.77
2018-11-12T18:55:59.347Z,2.00
2018-11-12T18:58:25.796Z,1.53
2018-11-12T19:00:52.326Z,1.80
2018-11-12T19:03:18.812Z,1.17
2018-11-12T19:05:45.350Z,1.53
2018-11-12T19:08:11.812Z,1.67
2018-11-12T19:10:38.294Z,1.03
2018-11-12T19:13:04.750Z,1.70
2018-11-12T19:15:32.997Z,1.70
2018-11-12T19:17:59.950Z,1.47
2018-11-12T19:20:26.458Z,1.60
2018-11-12T19:22:53.120Z,1.43
2018-11-12T19:25:19.575Z,1.73
2018-11-12T19:27:46.046Z,1.30
2018-11-12T19:30:12.965Z,1.53
2018-11-12T19:32:39.780Z,1.30
2018-11-12T19:35:06.273Z,1.43
2018-11-12T19:37:32.781Z,1.53
2018-11-12T19:39:59.276Z,1.83
2018-11-12T19:42:25.738Z,1.70
2018-11-12T19:44:52.185Z,1.53
2018-11-12T19:47:18.662Z,1.70
2018-11-12T19:49:45.123Z,1.57
2018-11-12T19:52:11.568Z,1.20
2018-11-12T19:54:38.080Z,1.50
2018-11-12T19:57:04.538Z,1.60
2018-11-12T19:59:30.991Z,1.30
2018-11-12T20:01:57.847Z,1.33
2018-11-12T20:04:24.300Z,1.80
2018-11-12T20:06:50.760Z,1.43
2018-11-12T20:09:17.211Z,1.83
2018-11-12T20:11:43.697Z,1.47
2018-11-12T20:14:10.160Z,1.70
2018-11-12T20:16:36.731Z,1.40
2018-11-12T20:19:03.262Z,1.50
2018-11-12T20:21:29.754Z,1.00
2018-11-12T20:23:56.193Z,1.73
2018-11-12T20:26:22.639Z,1.90
2018-11-12T20:28:49.083Z,1.60
2018-11-12T20:31:15.563Z,1.60
2018-11-12T20:33:42.154Z,1.50
2018-11-12T20:36:08.615Z,1.97
2018-11-12T20:38:35.107Z,1.80
2018-11-12T20:41:01.539Z,1.53
2018-11-12T20:43:28.084Z,1.90
2018-11-12T20:45:54.546Z,1.60
2018-11-12T20:48:21.012Z,2.03
2018-11-12T20:50:47.580Z,1.30
2018-11-12T20:53:14.013Z,1.40
2018-11-12T20:55:40.539Z,1.30
2018-11-12T20:58:07.014Z,1.73
2018-11-12T21:00:33.431Z,1.70
2018-11-12T21:02:59.917Z,1.50
2018-11-12T21:05:27.552Z,1.57
2018-11-12T21:07:54.014Z,1.57
2018-11-12T21:10:20.673Z,1.40
2018-11-12T21:12:47.615Z,1.60
2018-11-12T21:15:15.267Z,1.30
2018-11-12T21:17:42.131Z,1.53
2018-11-12T21:20:08.578Z,1.40
2018-11-12T21:22:35.065Z,1.23
2018-11-12T21:25:01.530Z,1.30
2018-11-12T21:27:28.093Z,1.83
2018-11-12T21:29:54.717Z,1.50
2018-11-12T21:32:21.176Z,1.30
2018-11-12T21:34:47.587Z,1.20
2018-11-12T21:37:14.177Z,1.43
2018-11-12T21:39:40.639Z,1.47
2018-11-12T21:42:07.077Z,1.40
2018-11-12T21:44:33.541Z,1.83
2018-11-12T21:46:59.967Z,1.40
2018-11-12T21:49:26.508Z,1.50
2018-11-12T21:51:52.929Z,1.67
2018-11-12T21:54:19.653Z,1.80
2018-11-12T21:56:46.129Z,1.80
2018-11-12T21:59:12.561Z,1.33
2018-11-12T22:01:38.996Z,1.67
2018-11-12T22:04:05.463Z,1.60
2018-11-12T22:06:31.976Z,1.80
2018-11-12T22:08:58.405Z,1.70
2018-11-12T22:11:24.879Z,1.60
2018-11-12T22:13:51.303Z,1.73
2018-11-12T22:16:17.791Z,1.67
2018-11-12T22:18:44.250Z,1.47
2018-11-12T22:21:10.685Z,1.20
2018-11-12T22:23:37.152Z,1.30
2018-11-12T22:26:03.657Z,1.63
2018-11-12T22:28:30.084Z,1.60
2018-11-12T22:30:56.523Z,1.63
2018-11-12T22:33:22.967Z,1.50
2018-11-12T22:35:49.503Z,1.60
2018-11-12T22:38:15.945Z,2.10
2018-11-12T22:40:42.409Z,1.50
2018-11-12T22:43:08.911Z,1.60
2018-11-12T22:45:35.374Z,1.40
2018-11-12T22:48:01.773Z,1.80
2018-11-12T22:50:28.219Z,2.10
2018-11-12T22:52:54.698Z,1.50
2018-11-12T22:55:21.141Z,1.37
2018-11-12T22:57:47.621Z,1.40
2018-11-12T23:00:19.729Z,1.50
2018-11-12T23:02:46.547Z,1.37
2018-11-12T23:05:13.565Z,1.43
2018-11-12T23:07:40.011Z,1.80
2018-11-12T23:10:06.456Z,1.57
2018-11-12T23:12:32.983Z,1.50
2018-11-12T23:14:59.383Z,1.60
2018-11-12T23:17:25.837Z,1.63
2018-11-12T23:19:52.309Z,1.77
2018-11-12T23:22:18.730Z,1.33
2018-11-12T23:24:45.143Z,1.77
2018-11-12T23:27:11.596Z,1.53
2018-11-12T23:29:38.077Z,1.70
2018-11-12T23:32:04.522Z,1.90
2018-11-12T23:34:31.007Z,1.80
2018-11-12T23:36:57.454Z,1.53
2018-11-12T23:39:23.862Z,1.67
2018-11-12T23:41:50.278Z,1.37
2018-11-12T23:44:16.714Z,1.50
2018-11-12T23:46:43.209Z,1.63
2018-11-12T23:49:09.664Z,1.60
2018-11-12T23:51:36.109Z,2.27
2018-11-12T23:54:02.515Z,1.70
2018-11-12T23:56:28.967Z,1.63
2018-11-12T23:58:55.417Z,1.63
